Hauptseite
METAR-TAF:

METAR-TAF

Flughäfen :

Savoonga, Alaska, Vereinigte Staaten

Breite: 63-41N, Länge: 170-30W, Höhe: 16 m

Beobachtung

Neuester Wetterbericht von vor 29 Minuten, um 05:56 UTC
Wind 4 kt aus Ost/Nordost
Temperatur -18°C
Luftfeuchtigkeit 92%
Luftdruck 1024 hPa
Sichtweite: 14.5 km
Geschlossene Wolkendecke in der Höhe von 1300 ft
Schnee leicht

METAR: PASA 280556Z AUTO 07004KT 9SM -SN OVC013 M18/M19 A3025 RMK AO2 SLP247 P0000 60000 T11781194 11161 21206 56007 FZRANO

Zeit: 21:25 (06:25 UTC)


TAF: fehlend

Wetterbeobachtungen und Prognosen von mehr als 4000 Flughäfen (METAR und TAF Bericht).

Die verfügbaren Stationen werden durch gelbe und rote Markierungen auf der Karte dargestellt.

Führen Sie die Maus auf sie, um den Namen der Station zu sehen.

Darauf klicken, um die Beobachtung von Wetterbeobachtungen und Prognosen zu sehen.

Um die Karte zu ändern : klicken Sie auf den grünen Tasten mit einem schwarzen Kreuz Zum Vergrößern, auf den grünen Button mit einem Gedankenstrich zu verkleinern, oder auf die grünen Pfeile für benachbarte Karten.


METAR-TAF: